Bitahochee, Arizona
Current Conditions -  °F | °C
As of 6:56 AM on Saturday 25 Oct 2014 (Local Time) from KINW Reporting Station
Clear Clear  
Wind Chill:   Ceiling: Unl
Heat Index:   Visibility: 10mi
Dew Point:   Wind: 5mph
Humidity: 71%   Direction: 130°SE
Pressure: 30.27"   Gusts: NA
Location:  35.4077°N, 110.085°W
Report Text: KINW 251256Z AUTO 13004KT 10SM CLR 08/03 A3027 RMK AO2 SLP204 T00780028
Loading
Personal Weather Stations






























Interactive Weather Map
Tropical Storm Tracking
New forecast layout! Learn more

10-Day Weather Forecast

Advertisements
Track Severe Weather on mobile